createdAt,value
2018-02-07T00:03:03.000Z,1006.572
2018-02-07T00:13:03.000Z,1006.64
2018-02-07T00:23:03.000Z,1006.646
2018-02-07T00:33:03.000Z,1006.561
2018-02-07T00:43:03.000Z,1006.513
2018-02-07T00:53:03.000Z,1006.529
2018-02-07T01:03:03.000Z,1006.503
2018-02-07T01:13:03.000Z,1006.519
2018-02-07T01:23:03.000Z,1006.558
2018-02-07T01:33:04.000Z,1006.594
2018-02-07T01:43:03.000Z,1006.614
2018-02-07T01:53:04.000Z,1006.583
2018-02-07T02:03:04.000Z,1006.549
2018-02-07T02:13:04.000Z,1006.573
2018-02-07T02:23:04.000Z,1006.583
2018-02-07T02:33:04.000Z,1006.669
2018-02-07T02:43:04.000Z,1006.706
2018-02-07T02:53:04.000Z,1006.714
2018-02-07T03:03:04.000Z,1006.783
2018-02-07T03:13:05.000Z,1006.854
2018-02-07T03:23:04.000Z,1006.807
2018-02-07T03:33:04.000Z,1006.739
2018-02-07T03:43:04.000Z,1006.796
2018-02-07T03:53:04.000Z,1006.773
2018-02-07T04:03:04.000Z,1006.866
2018-02-07T04:13:04.000Z,1006.904
2018-02-07T04:23:04.000Z,1006.948
2018-02-07T04:33:04.000Z,1006.975
2018-02-07T04:43:04.000Z,1006.976
2018-02-07T04:53:04.000Z,1006.873
2018-02-07T05:03:04.000Z,1006.87
2018-02-07T05:13:04.000Z,1006.878
2018-02-07T05:23:04.000Z,1007.012
2018-02-07T05:33:04.000Z,1007.096
2018-02-07T05:43:04.000Z,1007.2
2018-02-07T05:53:04.000Z,1007.232
2018-02-07T06:03:04.000Z,1007.193
2018-02-07T06:13:04.000Z,1007.243
2018-02-07T06:23:04.000Z,1007.398
2018-02-07T06:33:04.000Z,1007.449
2018-02-07T06:43:04.000Z,1007.717
2018-02-07T06:53:04.000Z,1007.72
2018-02-07T07:03:04.000Z,1007.725
2018-02-07T07:13:04.000Z,1007.809
2018-02-07T07:23:04.000Z,1007.921
2018-02-07T07:33:04.000Z,1008.034
2018-02-07T07:43:04.000Z,1008.139
2018-02-07T07:53:04.000Z,1008.251
2018-02-07T08:03:04.000Z,1008.353
2018-02-07T08:13:04.000Z,1008.332
2018-02-07T08:23:04.000Z,1008.348
2018-02-07T08:33:04.000Z,1008.393
2018-02-07T08:43:04.000Z,1008.547
2018-02-07T08:53:04.000Z,1008.568
2018-02-07T09:03:04.000Z,1008.713
2018-02-07T09:13:04.000Z,1008.757
2018-02-07T09:23:05.000Z,1008.814
2018-02-07T09:33:04.000Z,1008.859
2018-02-07T09:43:04.000Z,1008.899
2018-02-07T09:53:04.000Z,1009.108
2018-02-07T10:03:05.000Z,1009.139
2018-02-07T10:13:05.000Z,1009.181
2018-02-07T10:23:05.000Z,1009.228
2018-02-07T10:33:05.000Z,1009.279
2018-02-07T10:43:05.000Z,1009.369
2018-02-07T10:53:05.000Z,1009.287
2018-02-07T11:03:05.000Z,1009.358
2018-02-07T11:13:05.000Z,1009.319
2018-02-07T11:23:05.000Z,1009.38
2018-02-07T11:33:05.000Z,1009.376
2018-02-07T11:43:05.000Z,1009.362
2018-02-07T11:53:05.000Z,1009.359
2018-02-07T12:03:05.000Z,1009.23
2018-02-07T12:13:05.000Z,1009.201
2018-02-07T12:23:05.000Z,1009.267
2018-02-07T12:33:05.000Z,1009.215
2018-02-07T12:43:05.000Z,1009.205
2018-02-07T12:53:05.000Z,1009.354
2018-02-07T13:03:05.000Z,1009.385
2018-02-07T13:13:05.000Z,1009.334
2018-02-07T13:23:05.000Z,1009.328
2018-02-07T13:33:05.000Z,1009.423
2018-02-07T13:43:05.000Z,1009.461
2018-02-07T13:53:05.000Z,1009.413
2018-02-07T14:03:05.000Z,1009.381
2018-02-07T14:13:05.000Z,1009.304
2018-02-07T14:23:05.000Z,1009.345
2018-02-07T14:33:05.000Z,1009.271
2018-02-07T14:43:05.000Z,1009.266
2018-02-07T14:53:05.000Z,1009.274
2018-02-07T15:03:05.000Z,1009.388
2018-02-07T15:13:05.000Z,1009.454
2018-02-07T15:23:05.000Z,1009.461
2018-02-07T15:33:05.000Z,1009.448
2018-02-07T15:43:05.000Z,1009.501
2018-02-07T15:53:05.000Z,1009.44
2018-02-07T16:03:05.000Z,1009.444
2018-02-07T16:13:05.000Z,1009.471
2018-02-07T16:23:05.000Z,1009.616
2018-02-07T16:33:05.000Z,1009.666
2018-02-07T16:43:05.000Z,1009.704
2018-02-07T16:53:05.000Z,1009.801
2018-02-07T17:03:05.000Z,1009.974
2018-02-07T17:13:05.000Z,1010.079
2018-02-07T17:23:05.000Z,1010.215
2018-02-07T17:33:05.000Z,1010.283
2018-02-07T17:43:05.000Z,1010.353
2018-02-07T17:53:05.000Z,1010.45
2018-02-07T18:03:05.000Z,1010.596
2018-02-07T18:13:06.000Z,1010.658
2018-02-07T18:23:06.000Z,1010.722
2018-02-07T18:33:06.000Z,1010.89
2018-02-07T18:43:06.000Z,1010.987
2018-02-07T18:53:06.000Z,1011.045
2018-02-07T19:03:06.000Z,1011.122
2018-02-07T19:13:06.000Z,1011.091
2018-02-07T19:23:06.000Z,1011.151
2018-02-07T19:33:06.000Z,1011.196
2018-02-07T19:43:06.000Z,1011.223
2018-02-07T19:53:06.000Z,1011.234
2018-02-07T20:03:06.000Z,1011.236
2018-02-07T20:13:09.000Z,1011.254
2018-02-07T20:23:06.000Z,1011.258
2018-02-07T20:33:06.000Z,1011.341
2018-02-07T20:43:06.000Z,1011.318
2018-02-07T20:53:06.000Z,1011.383
2018-02-07T21:13:06.000Z,1011.408
2018-02-07T21:23:06.000Z,1011.455
2018-02-07T21:33:06.000Z,1011.503
2018-02-07T21:43:06.000Z,1011.533
2018-02-07T21:53:06.000Z,1011.519
2018-02-07T22:03:06.000Z,1011.553
2018-02-07T22:13:07.000Z,1011.556
2018-02-07T22:23:06.000Z,1011.642
2018-02-07T22:33:06.000Z,1011.729
2018-02-07T22:43:06.000Z,1011.753
2018-02-07T22:53:06.000Z,1011.759
2018-02-07T23:03:06.000Z,1011.669
2018-02-07T23:13:06.000Z,1011.713
2018-02-07T23:23:06.000Z,1011.923
2018-02-07T23:33:06.000Z,1011.921
2018-02-07T23:43:06.000Z,1011.878
2018-02-07T23:53:06.000Z,1011.909
